Time;durP1;ratioP1;P1;durP2;ratioP2;P2;SDS_P1;SDS_P2;PMS_P1;PMS_P2;Temp;Humidity;BMP_temperature;BMP_pressure;BME280_temperature;BME280_humidity;BME280_pressure;Samples;Min_cycle;Max_cycle;Signal;HPM_P1;HPM_P2
2022/04/10 00:00:43;;;;;;;8.10;3.50;;;2.50;99.90;;;;;;5013378;28;20029;-78
2022/04/10 00:03:09;;;;;;;7.70;3.27;;;2.50;99.90;;;;;;5011825;28;20030;-78
2022/04/10 00:05:35;;;;;;;7.97;3.20;;;2.50;99.90;;;;;;5011694;28;20037;-78
2022/04/10 00:08:01;;;;;;;5.40;2.73;;;2.40;99.90;;;;;;5013445;28;20037;-78
2022/04/10 00:10:28;;;;;;;6.13;3.23;;;2.50;99.90;;;;;;5013034;28;20037;-78
2022/04/10 00:12:53;;;;;;;5.90;3.03;;;2.50;99.90;;;;;;5011671;28;20117;-78
2022/04/10 00:15:19;;;;;;;8.37;3.50;;;2.60;99.90;;;;;;5013250;28;20111;-78
2022/04/10 00:17:44;;;;;;;6.27;3.30;;;2.50;99.90;;;;;;5013012;28;20034;-78
2022/04/10 00:20:11;;;;;;;7.77;3.73;;;2.60;99.90;;;;;;5012892;28;20081;-78
2022/04/10 00:22:48;;;;;;;7.10;3.57;;;2.60;99.90;;;;;;5015687;28;20117;-78
2022/04/10 00:25:16;;;;;;;6.80;3.70;;;2.60;99.90;;;;;;5015309;28;20033;-78
2022/04/10 00:27:42;;;;;;;7.57;3.83;;;2.60;99.90;;;;;;5016739;28;20026;-78
2022/04/10 00:30:09;;;;;;;6.53;2.83;;;2.60;99.90;;;;;;5016095;28;20029;-78
2022/04/10 00:32:35;;;;;;;11.00;4.77;;;2.60;99.90;;;;;;5015019;28;20042;-78
2022/04/10 00:35:01;;;;;;;7.57;3.90;;;2.50;99.90;;;;;;5016432;28;20084;-78
2022/04/10 00:37:27;;;;;;;10.90;3.77;;;2.40;99.90;;;;;;5016673;28;20065;-78
2022/04/10 00:39:53;;;;;;;6.83;3.20;;;2.40;99.90;;;;;;5016387;28;20100;-78
2022/04/10 00:42:19;;;;;;;6.17;3.70;;;2.40;99.90;;;;;;5016308;28;20479;-78
2022/04/10 00:44:45;;;;;;;5.53;3.23;;;2.30;99.90;;;;;;5016313;28;20037;-80
2022/04/10 00:47:11;;;;;;;5.23;3.37;;;2.20;99.90;;;;;;5014802;28;20033;-79
2022/04/10 00:49:37;;;;;;;6.90;3.63;;;2.20;99.90;;;;;;5016266;28;20032;-79
2022/04/10 00:52:06;;;;;;;6.53;3.53;;;2.20;99.90;;;;;;5015267;28;20120;-79
2022/04/10 00:54:33;;;;;;;6.23;3.27;;;2.10;99.90;;;;;;5016401;28;20100;-79
2022/04/10 00:57:01;;;;;;;6.00;3.70;;;2.10;99.90;;;;;;5014662;28;20026;-79
2022/04/10 00:59:28;;;;;;;7.70;3.87;;;2.00;99.90;;;;;;5014663;28;20487;-78
2022/04/10 01:01:54;;;;;;;8.33;3.80;;;2.00;99.90;;;;;;5016165;28;20030;-78
2022/04/10 01:04:20;;;;;;;6.60;3.77;;;1.90;99.90;;;;;;5014918;28;20116;-78
2022/04/10 01:06:47;;;;;;;6.77;4.13;;;1.90;99.90;;;;;;5015977;28;20120;-78
2022/04/10 01:09:13;;;;;;;10.97;3.30;;;1.80;99.90;;;;;;5016276;28;20030;-78
2022/04/10 01:11:39;;;;;;;7.00;3.47;;;1.80;99.90;;;;;;5015911;28;20026;-78
2022/04/10 01:14:05;;;;;;;5.60;3.50;;;1.80;99.90;;;;;;5015891;28;20378;-78
2022/04/10 01:16:31;;;;;;;8.23;3.67;;;1.80;99.90;;;;;;5016444;28;20041;-78
2022/04/10 01:18:57;;;;;;;5.00;3.80;;;1.70;99.90;;;;;;5016385;28;20101;-78
2022/04/10 01:21:27;;;;;;;6.10;3.73;;;1.70;99.90;;;;;;5015828;28;20048;-79
2022/04/10 01:23:53;;;;;;;9.30;4.23;;;1.70;99.90;;;;;;5016567;28;20026;-79
2022/04/10 01:26:21;;;;;;;9.57;4.20;;;1.60;99.90;;;;;;5014232;28;20026;-79
2022/04/10 01:29:08;;;;;;;8.40;4.50;;;1.60;99.90;;;;;;5015853;28;20409;-78
2022/04/10 01:31:37;;;;;;;11.27;5.00;;;1.50;99.90;;;;;;5015543;28;20022;-78
2022/04/10 01:34:06;;;;;;;6.00;3.83;;;1.40;99.90;;;;;;5015241;28;20096;-78
2022/04/10 01:36:33;;;;;;;6.37;3.90;;;1.40;99.90;;;;;;5015451;28;20026;-78
2022/04/10 01:39:01;;;;;;;8.73;4.00;;;1.50;99.90;;;;;;5015254;28;20060;-78
2022/04/10 01:41:28;;;;;;;7.23;4.10;;;1.50;99.90;;;;;;5013998;28;20475;-78
2022/04/10 01:43:55;;;;;;;6.97;4.10;;;1.50;99.90;;;;;;5015228;28;20540;-78
2022/04/10 01:46:23;;;;;;;7.43;4.50;;;1.50;99.90;;;;;;5015095;28;20428;-78
2022/04/10 01:48:48;;;;;;;8.03;3.90;;;1.50;99.90;;;;;;5015238;28;20391;-78
2022/04/10 01:51:15;;;;;;;9.03;3.47;;;1.60;99.90;;;;;;5014098;28;20022;-78
2022/04/10 01:53:40;;;;;;;8.10;3.67;;;1.60;99.90;;;;;;5015299;28;20029;-78
2022/04/10 01:56:08;;;;;;;7.80;4.13;;;1.70;99.90;;;;;;5015121;28;20022;-78
2022/04/10 01:58:39;;;;;;;7.47;3.93;;;1.80;99.90;;;;;;5014376;28;20482;-78
2022/04/10 02:01:07;;;;;;;5.30;3.40;;;2.00;99.90;;;;;;5014963;28;20028;-78
2022/04/10 02:03:34;;;;;;;7.87;3.87;;;2.10;99.90;;;;;;5014769;28;20033;-78
2022/04/10 02:06:00;;;;;;;5.65;3.50;;;2.20;99.90;;;;;;5013465;28;20364;-78
2022/04/10 02:08:26;;;;;;;7.90;4.23;;;2.20;99.90;;;;;;5014850;28;20093;-78
2022/04/10 02:10:52;;;;;;;6.33;3.93;;;2.30;99.90;;;;;;5014795;28;20022;-78
2022/04/10 02:13:19;;;;;;;5.10;3.30;;;2.30;99.90;;;;;;5013347;28;20032;-78
2022/04/10 02:15:45;;;;;;;5.83;3.60;;;2.40;99.90;;;;;;5014807;28;20025;-78
2022/04/10 02:18:10;;;;;;;5.97;3.60;;;2.40;99.90;;;;;;5014722;28;20402;-78
2022/04/10 02:20:36;;;;;;;8.00;3.90;;;2.40;99.90;;;;;;5014802;28;20040;-78
2022/04/10 02:23:02;;;;;;;5.03;3.47;;;2.40;99.90;;;;;;5013467;28;20038;-78
2022/04/10 02:25:28;;;;;;;7.00;3.80;;;2.40;99.90;;;;;;5014315;28;20026;-78
2022/04/10 02:27:53;;;;;;;7.40;4.10;;;2.50;99.90;;;;;;5014273;28;20387;-78
2022/04/10 02:30:19;;;;;;;6.27;3.63;;;2.50;99.90;;;;;;5014192;28;20467;-78
2022/04/10 02:32:45;;;;;;;11.43;4.40;;;2.50;99.90;;;;;;5014404;28;20054;-78
2022/04/10 02:35:11;;;;;;;7.27;3.87;;;2.50;99.90;;;;;;5013089;28;20030;-78
2022/04/10 02:37:37;;;;;;;8.13;3.33;;;2.50;99.90;;;;;;5014149;28;20033;-78
2022/04/10 02:40:04;;;;;;;7.33;3.70;;;2.50;99.90;;;;;;5013072;28;20117;-78
2022/04/10 02:42:33;;;;;;;6.13;3.40;;;2.50;99.90;;;;;;5014622;28;20032;-78
2022/04/10 02:44:59;;;;;;;9.83;3.23;;;2.50;99.90;;;;;;5013473;28;20092;-78
2022/04/10 02:47:25;;;;;;;6.50;3.23;;;2.40;99.90;;;;;;5013459;28;20124;-78
2022/04/10 02:49:53;;;;;;;7.37;3.10;;;2.40;99.90;;;;;;5012780;28;20112;-78
2022/04/10 02:52:19;;;;;;;6.93;3.20;;;2.40;99.90;;;;;;5014298;28;20022;-78
2022/04/10 02:54:44;;;;;;;6.23;3.43;;;2.50;99.90;;;;;;5013384;28;20129;-78
2022/04/10 02:57:10;;;;;;;8.13;3.10;;;2.50;99.90;;;;;;5014202;28;20132;-78
2022/04/10 02:59:36;;;;;;;4.67;2.90;;;2.50;99.90;;;;;;5013653;28;20034;-78
2022/04/10 03:02:02;;;;;;;8.63;3.10;;;2.50;99.90;;;;;;5013738;28;20455;-78
2022/04/10 03:04:28;;;;;;;6.57;3.43;;;2.50;99.90;;;;;;5013545;28;20088;-78
2022/04/10 03:06:53;;;;;;;7.17;3.50;;;2.40;99.90;;;;;;5012291;28;20034;-79
2022/04/10 03:09:19;;;;;;;6.10;3.30;;;2.40;99.90;;;;;;5012249;28;20033;-78
2022/04/10 03:11:45;;;;;;;5.43;3.43;;;2.40;99.90;;;;;;5013808;28;20041;-78
2022/04/10 03:14:10;;;;;;;7.30;3.87;;;2.50;99.90;;;;;;5013450;28;20088;-78
2022/04/10 03:16:36;;;;;;;7.37;3.87;;;2.50;99.90;;;;;;5013492;28;20036;-78
2022/04/10 03:19:02;;;;;;;8.27;3.80;;;2.50;99.90;;;;;;5013645;28;20048;-78
2022/04/10 03:21:27;;;;;;;7.77;4.03;;;2.40;99.90;;;;;;5013437;28;20037;-78
2022/04/10 03:23:53;;;;;;;9.37;4.33;;;2.40;99.90;;;;;;5013610;28;20436;-78
2022/04/10 03:26:18;;;;;;;5.83;3.90;;;2.40;99.90;;;;;;5012216;28;20494;-78
2022/04/10 03:28:44;;;;;;;5.53;3.80;;;2.40;99.90;;;;;;5013278;28;20411;-78
2022/04/10 03:31:10;;;;;;;5.73;3.80;;;2.50;99.90;;;;;;5013238;28;20026;-78
2022/04/10 03:33:35;;;;;;;7.87;4.30;;;2.50;99.90;;;;;;5013364;28;20082;-79
2022/04/10 03:36:01;;;;;;;7.30;4.30;;;2.50;99.90;;;;;;5011910;28;20140;-79
2022/04/10 03:38:26;;;;;;;10.50;4.57;;;2.40;99.90;;;;;;5012976;28;20037;-78
2022/04/10 03:40:52;;;;;;;5.17;3.97;;;2.40;99.90;;;;;;5009487;28;20664;-78
2022/04/10 03:43:17;;;;;;;7.77;4.30;;;2.40;99.90;;;;;;5010239;28;20438;-78
2022/04/10 03:45:43;;;;;;;8.63;4.27;;;2.40;99.90;;;;;;5009740;28;20470;-78
2022/04/10 03:48:09;;;;;;;7.20;4.30;;;2.30;99.90;;;;;;5003740;28;20382;-78
2022/04/10 03:50:35;;;;;;;7.67;4.40;;;2.30;99.90;;;;;;5025596;28;20060;-78
2022/04/10 03:53:03;;;;;;;9.73;4.40;;;2.30;99.90;;;;;;5010197;28;20108;-78
2022/04/10 03:55:29;;;;;;;7.90;4.53;;;2.30;99.90;;;;;;5009934;28;20097;-78
2022/04/10 03:57:57;;;;;;;7.97;4.83;;;2.30;99.90;;;;;;5012882;28;20037;-78
2022/04/10 04:00:23;;;;;;;8.50;4.07;;;2.30;99.90;;;;;;5003715;28;20030;-78
2022/04/10 04:02:49;;;;;;;7.17;4.20;;;2.30;99.90;;;;;;4994964;28;20026;-78
2022/04/10 04:05:14;;;;;;;6.80;4.20;;;2.30;99.90;;;;;;5003518;28;20402;-78
2022/04/10 04:07:40;;;;;;;10.67;4.70;;;2.30;99.90;;;;;;5014090;28;20108;-78
2022/04/10 04:10:07;;;;;;;7.07;4.57;;;2.20;99.90;;;;;;5014455;28;20425;-78
2022/04/10 04:12:34;;;;;;;9.03;4.53;;;2.20;99.90;;;;;;5014461;28;20030;-78
2022/04/10 04:15:00;;;;;;;7.07;4.23;;;2.20;99.90;;;;;;5014532;28;20477;-78
2022/04/10 04:17:26;;;;;;;8.07;5.17;;;2.10;99.90;;;;;;5014754;28;20137;-78
2022/04/10 04:19:51;;;;;;;9.30;4.20;;;2.10;99.90;;;;;;5013319;28;20037;-78
2022/04/10 04:22:17;;;;;;;6.13;4.17;;;2.10;99.90;;;;;;5012794;28;20038;-78
2022/04/10 04:24:43;;;;;;;7.17;4.27;;;2.10;99.90;;;;;;5013917;28;20459;-78
2022/04/10 04:27:09;;;;;;;7.20;4.70;;;2.10;99.90;;;;;;5013841;28;20038;-78
2022/04/10 04:29:35;;;;;;;7.97;3.97;;;2.10;99.90;;;;;;5013463;28;20057;-78
2022/04/10 04:32:01;;;;;;;8.77;4.47;;;2.10;99.90;;;;;;5013800;28;20041;-78
2022/04/10 04:34:26;;;;;;;7.70;4.50;;;2.10;99.90;;;;;;5013917;28;20041;-78
2022/04/10 04:36:52;;;;;;;7.43;4.47;;;2.20;99.90;;;;;;5013520;28;20065;-78
2022/04/10 04:39:18;;;;;;;7.53;5.20;;;2.20;99.90;;;;;;5013826;28;20029;-78
2022/04/10 04:41:43;;;;;;;6.50;3.97;;;2.20;99.90;;;;;;5013655;28;20026;-78
2022/04/10 04:44:09;;;;;;;7.97;4.53;;;2.10;99.90;;;;;;5013718;28;20053;-78
2022/04/10 04:46:35;;;;;;;6.73;4.87;;;2.10;99.90;;;;;;5014531;28;20029;-78
2022/04/10 04:49:00;;;;;;;10.13;4.73;;;2.10;99.90;;;;;;5007796;28;20828;-81
2022/04/10 04:51:26;;;;;;;8.07;4.13;;;2.10;99.90;;;;;;5009673;28;20052;-81
2022/04/10 04:53:51;;;;;;;6.00;4.20;;;2.00;99.90;;;;;;5011127;28;20048;-81
2022/04/10 04:56:17;;;;;;;8.47;5.00;;;2.10;99.90;;;;;;5012742;28;20396;-78
2022/04/10 04:58:43;;;;;;;8.53;4.47;;;2.10;99.90;;;;;;5015069;28;20022;-80
2022/04/10 05:01:09;;;;;;;11.13;4.33;;;2.10;99.90;;;;;;5011555;28;20053;-79
2022/04/10 05:03:34;;;;;;;7.77;4.70;;;2.10;99.90;;;;;;5012399;28;20061;-80
2022/04/10 05:06:00;;;;;;;7.43;4.50;;;2.10;99.90;;;;;;5012582;28;20533;-81
2022/04/10 05:08:28;;;;;;;10.40;4.70;;;2.20;99.90;;;;;;5011286;28;20061;-81
2022/04/10 05:10:54;;;;;;;8.00;4.40;;;2.20;99.90;;;;;;5014089;28;20096;-79
2022/04/10 05:13:19;;;;;;;7.43;4.93;;;2.30;99.90;;;;;;5010110;28;20121;-81
2022/04/10 05:15:45;;;;;;;8.40;4.50;;;2.40;99.90;;;;;;5012464;28;20038;-78
2022/04/10 05:18:13;;;;;;;8.20;4.90;;;2.40;99.90;;;;;;5013535;28;20092;-77
2022/04/10 05:20:39;;;;;;;9.47;4.97;;;2.50;99.90;;;;;;5012286;28;20033;-80
2022/04/10 05:23:04;;;;;;;9.70;4.60;;;2.50;99.90;;;;;;5011163;28;20426;-79
2022/04/10 05:25:30;;;;;;;8.70;5.30;;;2.50;99.90;;;;;;5010309;28;20034;-80
2022/04/10 05:27:55;;;;;;;8.47;4.80;;;2.60;99.90;;;;;;5012158;28;20033;-79
2022/04/10 05:30:22;;;;;;;9.77;4.73;;;2.60;99.90;;;;;;5010748;28;20037;-77
2022/04/10 05:32:48;;;;;;;6.33;4.37;;;2.70;99.90;;;;;;5007367;28;20506;-77
2022/04/10 05:35:13;;;;;;;7.30;4.30;;;2.70;99.90;;;;;;5007445;28;20057;-80
2022/04/10 05:37:39;;;;;;;9.43;4.80;;;2.80;99.90;;;;;;5005726;28;20030;-80
2022/04/10 05:40:05;;;;;;;6.50;4.63;;;2.70;99.90;;;;;;5008185;28;20351;-80
2022/04/10 05:42:30;;;;;;;6.37;4.33;;;2.80;99.90;;;;;;4999687;28;20048;-80
2022/04/10 05:45:09;;;;;;;9.13;5.00;;;2.80;99.90;;;;;;5004821;28;20132;-80
2022/04/10 05:47:41;;;;;;;9.03;4.90;;;2.80;99.90;;;;;;5008373;28;20026;-79
2022/04/10 05:50:08;;;;;;;7.33;4.33;;;2.90;99.90;;;;;;5008899;28;20314;-79
2022/04/10 05:52:38;;;;;;;8.93;4.80;;;3.00;99.90;;;;;;5001384;28;20038;-78
2022/04/10 05:55:04;;;;;;;6.93;4.50;;;3.00;99.90;;;;;;5011581;28;20014;-79
2022/04/10 05:57:30;;;;;;;6.33;4.73;;;3.10;99.90;;;;;;5009452;28;20099;-78
2022/04/10 05:59:56;;;;;;;9.23;4.80;;;3.10;99.90;;;;;;5014951;28;20026;-78
2022/04/10 06:02:21;;;;;;;8.00;4.83;;;3.20;99.90;;;;;;5013815;28;20030;-78
2022/04/10 06:04:47;;;;;;;7.30;5.17;;;3.20;99.90;;;;;;5012030;28;20025;-80
2022/04/10 06:07:13;;;;;;;8.43;4.73;;;3.20;99.90;;;;;;5001017;28;20037;-77
2022/04/10 06:09:38;;;;;;;9.00;4.47;;;3.20;99.90;;;;;;5005422;28;20399;-77
2022/04/10 06:12:04;;;;;;;6.30;4.67;;;3.30;99.90;;;;;;5002337;28;20371;-79
2022/04/10 06:14:30;;;;;;;7.40;4.57;;;3.30;99.90;;;;;;5002873;28;20022;-79
2022/04/10 06:16:55;;;;;;;8.97;5.10;;;3.40;99.90;;;;;;5002805;28;20037;-79
2022/04/10 06:19:21;;;;;;;8.90;4.20;;;3.40;99.90;;;;;;4998311;28;20407;-80
2022/04/10 06:21:46;;;;;;;8.30;4.70;;;3.40;99.90;;;;;;5001300;28;20040;-80
2022/04/10 06:24:12;;;;;;;8.43;4.50;;;3.50;99.90;;;;;;5002249;28;20387;-80
2022/04/10 06:26:37;;;;;;;7.30;4.67;;;3.60;99.90;;;;;;5002356;28;20026;-80
2022/04/10 06:29:03;;;;;;;6.00;4.67;;;3.70;99.90;;;;;;4999157;28;20465;-80
2022/04/10 06:31:29;;;;;;;9.20;5.20;;;3.80;99.90;;;;;;5004653;28;20121;-80
2022/04/10 06:33:56;;;;;;;11.60;5.40;;;3.90;99.90;;;;;;5027090;28;20049;-79
2022/04/10 06:36:25;;;;;;;6.53;4.60;;;4.00;99.90;;;;;;5013197;28;20018;-81
2022/04/10 06:38:51;;;;;;;7.07;5.20;;;4.00;99.90;;;;;;5003995;28;20029;-79
2022/04/10 06:41:16;;;;;;;7.67;4.83;;;4.00;99.90;;;;;;5005356;28;20022;-79
2022/04/10 06:43:43;;;;;;;6.83;5.00;;;4.10;99.90;;;;;;4996228;28;20054;-79
2022/04/10 06:46:09;;;;;;;8.90;5.30;;;4.20;99.90;;;;;;4995904;28;20067;-76
2022/04/10 06:48:39;;;;;;;6.60;4.70;;;4.30;99.90;;;;;;5014785;28;20018;-78
2022/04/10 06:51:04;;;;;;;8.43;4.87;;;4.40;99.90;;;;;;5016703;28;20149;-79
2022/04/10 06:53:30;;;;;;;11.17;4.73;;;4.60;99.90;;;;;;5013004;28;20105;-84
2022/04/10 06:55:56;;;;;;;8.53;5.43;;;4.60;99.90;;;;;;4996472;28;20040;-80
2022/04/10 06:58:22;;;;;;;6.50;4.43;;;4.50;99.90;;;;;;5005082;28;20034;-81
2022/04/10 07:00:51;;;;;;;8.17;5.10;;;4.50;99.90;;;;;;5014204;28;20466;-80
2022/04/10 07:03:22;;;;;;;9.00;4.50;;;4.60;99.90;;;;;;5012546;28;20033;-76
2022/04/10 07:05:54;;;;;;;10.20;4.60;;;4.70;99.90;;;;;;4994254;28;20036;-75
2022/04/10 07:08:19;;;;;;;8.70;5.10;;;4.80;99.90;;;;;;4998155;28;20022;-76
2022/04/10 07:10:45;;;;;;;8.60;5.47;;;4.80;99.90;;;;;;5012589;28;20089;-77
2022/04/10 07:13:17;;;;;;;7.67;5.63;;;4.70;99.90;;;;;;4995594;28;20421;-79
2022/04/10 07:15:45;;;;;;;8.60;5.33;;;4.80;99.90;;;;;;5021162;28;20030;-79
2022/04/10 07:18:11;;;;;;;9.30;5.13;;;4.90;99.90;;;;;;5004284;28;20026;-79
2022/04/10 07:20:36;;;;;;;8.47;5.10;;;5.00;99.90;;;;;;5008716;28;20108;-76
2022/04/10 07:25:46;;;;;;;9.00;5.20;;;5.20;99.90;;;;;;5013634;28;20028;-77
2022/04/10 07:28:12;;;;;;;8.70;5.07;;;5.10;99.90;;;;;;5013646;28;20108;-77
2022/04/10 07:30:38;;;;;;;9.37;4.97;;;5.10;99.90;;;;;;5013326;28;20394;-77
2022/04/10 07:33:04;;;;;;;6.13;4.70;;;5.20;99.90;;;;;;5018386;28;20061;-78
2022/04/10 07:35:29;;;;;;;7.03;4.73;;;5.30;99.90;;;;;;5009075;28;20557;-79
2022/04/10 07:37:55;;;;;;;7.30;5.07;;;5.30;99.90;;;;;;5009491;28;20453;-76
2022/04/10 07:40:21;;;;;;;12.20;4.73;;;5.30;99.90;;;;;;5010013;28;20030;-77
2022/04/10 07:42:47;;;;;;;8.20;4.80;;;5.30;99.90;;;;;;5008854;28;20095;-78
2022/04/10 07:47:59;;;;;;;7.97;4.57;;;5.50;99.90;;;;;;5013271;28;20442;-76
2022/04/10 07:50:26;;;;;;;9.37;5.80;;;5.60;99.90;;;;;;5013423;28;20022;-76
2022/04/10 07:52:51;;;;;;;6.37;4.70;;;5.40;99.90;;;;;;5013568;28;20054;-76
2022/04/10 07:55:17;;;;;;;6.83;4.73;;;5.50;99.90;;;;;;5013543;28;20065;-76
2022/04/10 07:57:43;;;;;;;6.43;4.67;;;5.50;99.90;;;;;;5013648;28;20026;-76
2022/04/10 08:00:09;;;;;;;7.13;4.67;;;5.50;99.90;;;;;;5012476;28;20022;-76
2022/04/10 08:02:34;;;;;;;7.30;4.53;;;5.60;99.90;;;;;;4999827;28;20050;-76
2022/04/10 08:05:00;;;;;;;7.23;4.83;;;5.80;99.90;;;;;;5006039;28;20026;-80
2022/04/10 08:07:25;;;;;;;7.27;4.47;;;5.90;99.90;;;;;;4998881;28;20018;-81
2022/04/10 08:09:51;;;;;;;6.63;4.03;;;6.10;99.90;;;;;;5003026;28;20097;-78
2022/04/10 08:12:16;;;;;;;7.93;4.13;;;6.40;99.90;;;;;;5011197;28;20061;-79
2022/04/10 08:14:43;;;;;;;7.87;3.70;;;6.50;99.90;;;;;;5009477;28;20026;-80
2022/04/10 08:17:11;;;;;;;6.27;4.43;;;6.80;99.90;;;;;;5009888;28;20120;-77
2022/04/10 08:19:37;;;;;;;10.43;4.00;;;6.90;99.90;;;;;;5010214;28;20037;-77
2022/04/10 08:22:03;;;;;;;7.07;3.90;;;6.80;99.90;;;;;;5009395;28;20121;-77
2022/04/10 08:24:29;;;;;;;7.90;3.50;;;6.80;99.90;;;;;;5010233;28;20104;-77
2022/04/10 08:26:54;;;;;;;7.53;3.50;;;6.70;99.90;;;;;;5010070;28;20037;-77
2022/04/10 08:29:20;;;;;;;5.97;3.10;;;6.50;99.90;;;;;;5010350;28;20026;-76
2022/04/10 08:31:45;;;;;;;6.93;3.53;;;6.30;99.90;;;;;;5009040;28;20421;-80
2022/04/10 08:34:11;;;;;;;7.80;3.27;;;6.10;99.90;;;;;;5009415;28;20050;-79
2022/04/10 08:36:36;;;;;;;6.90;3.40;;;5.90;99.90;;;;;;5009372;28;20604;-79
2022/04/10 08:39:03;;;;;;;7.30;3.60;;;5.80;99.90;;;;;;5009531;28;20121;-79
2022/04/10 08:41:32;;;;;;;6.37;3.40;;;5.70;99.90;;;;;;5009644;28;20022;-80
2022/04/10 08:44:02;;;;;;;5.67;3.27;;;5.50;99.90;;;;;;5012873;28;20095;-79
2022/04/10 08:46:29;;;;;;;5.63;3.27;;;5.40;99.90;;;;;;5012619;28;20045;-80
2022/04/10 08:48:56;;;;;;;6.37;3.40;;;5.60;99.90;;;;;;5006135;28;20027;-80
2022/04/10 08:51:23;;;;;;;4.37;3.27;;;5.80;99.90;;;;;;5011128;28;20021;-80
2022/04/10 08:53:50;;;;;;;4.40;2.97;;;6.00;99.90;;;;;;5013648;28;20025;-80
2022/04/10 08:56:15;;;;;;;6.83;2.70;;;6.40;99.90;;;;;;5012985;28;20082;-80
2022/04/10 08:58:41;;;;;;;13.83;6.27;;;6.80;99.90;;;;;;5012739;28;20025;-80
2022/04/10 09:01:12;;;;;;;5.43;2.97;;;6.90;99.90;;;;;;5011447;28;20022;-80
2022/04/10 09:03:38;;;;;;;8.40;3.20;;;6.90;99.90;;;;;;5013408;28;20049;-80
2022/04/10 09:06:10;;;;;;;5.23;2.60;;;7.00;99.90;;;;;;5012464;28;20482;-79
2022/04/10 09:08:36;;;;;;;5.63;3.00;;;7.30;99.90;;;;;;5012387;28;20041;-79
2022/04/10 09:11:07;;;;;;;5.37;2.73;;;7.50;99.90;;;;;;5012843;28;20446;-79
2022/04/10 09:13:37;;;;;;;6.70;3.00;;;7.70;99.90;;;;;;5011847;28;20030;-80
2022/04/10 09:16:14;;;;;;;4.97;2.37;;;8.10;99.90;;;;;;5012752;28;20026;-78
2022/04/10 09:19:01;;;;;;;6.63;2.60;;;7.90;99.90;;;;;;5012674;28;20022;-80
2022/04/10 09:21:30;;;;;;;8.63;2.93;;;8.00;99.90;;;;;;4993007;28;20041;-79
2022/04/10 09:24:02;;;;;;;6.40;3.10;;;8.50;99.90;;;;;;4993161;28;20025;-79
2022/04/10 09:26:50;;;;;;;4.53;2.17;;;8.60;99.90;;;;;;4992746;28;20111;-80
2022/04/10 09:29:17;;;;;;;4.27;2.43;;;8.80;99.90;;;;;;4992947;28;20029;-80
2022/04/10 09:31:43;;;;;;;4.57;2.00;;;9.20;99.90;;;;;;5003145;28;20126;-80
2022/04/10 09:34:12;;;;;;;5.17;2.33;;;9.60;99.90;;;;;;5012217;28;20125;-80
2022/04/10 09:36:39;;;;;;;3.60;2.20;;;9.70;99.90;;;;;;5012638;28;20779;-80
2022/04/10 09:39:10;;;;;;;3.73;2.37;;;9.30;99.90;;;;;;5012746;28;20033;-80
2022/04/10 09:41:37;;;;;;;5.03;2.50;;;9.60;99.90;;;;;;5010828;28;20087;-80
2022/04/10 09:44:21;;;;;;;4.37;2.30;;;9.80;99.90;;;;;;5011769;28;20025;-80
2022/04/10 09:47:01;;;;;;;4.90;2.63;;;9.70;99.90;;;;;;5012349;28;20946;-80
2022/04/10 09:49:35;;;;;;;6.60;2.30;;;10.00;99.90;;;;;;5003707;28;20429;-80
2022/04/10 09:52:11;;;;;;;4.17;2.17;;;9.50;99.70;;;;;;4992451;28;20499;-80
2022/04/10 09:54:48;;;;;;;4.63;2.20;;;9.60;99.90;;;;;;4992993;28;20034;-77
2022/04/10 09:57:18;;;;;;;6.13;2.40;;;9.50;99.90;;;;;;4995646;28;20058;-76
2022/04/10 09:59:46;;;;;;;4.87;2.17;;;9.50;99.90;;;;;;5000989;28;20063;-80
2022/04/10 10:02:14;;;;;;;7.60;2.50;;;9.40;99.90;;;;;;5006891;28;20146;-80
2022/04/10 10:04:41;;;;;;;4.80;2.23;;;9.30;99.90;;;;;;4999462;28;20029;-77
2022/04/10 10:07:20;;;;;;;5.03;2.13;;;9.10;99.90;;;;;;5024141;28;20030;-78
2022/04/10 10:09:48;;;;;;;3.83;2.10;;;9.20;99.90;;;;;;5008932;28;20033;-78
2022/04/10 10:12:15;;;;;;;3.53;2.07;;;9.20;99.70;;;;;;5008317;28;20485;-78
2022/04/10 10:14:41;;;;;;;6.23;2.97;;;9.00;99.90;;;;;;5011552;28;20137;-78
2022/04/10 10:17:08;;;;;;;4.30;2.73;;;9.00;99.90;;;;;;5011952;28;20030;-78
2022/04/10 10:19:35;;;;;;;6.10;2.17;;;8.90;99.90;;;;;;5010800;28;20478;-79
2022/04/10 10:22:03;;;;;;;4.43;2.10;;;9.00;99.90;;;;;;5011334;28;20100;-80
2022/04/10 10:24:57;;;;;;;3.43;1.73;;;8.90;99.90;;;;;;5009395;28;20544;-80
2022/04/10 10:27:57;;;;;;;5.60;2.20;;;9.10;99.90;;;;;;5008291;28;20025;-80
2022/04/10 10:31:08;;;;;;;5.87;2.47;;;9.20;98.10;;;;;;5010759;28;20022;-80
2022/04/10 10:33:36;;;;;;;4.43;1.97;;;9.60;97.80;;;;;;5004275;28;20149;-76
2022/04/10 10:36:08;;;;;;;3.93;2.00;;;10.10;99.90;;;;;;4980759;28;20502;-77
2022/04/10 10:38:34;;;;;;;3.23;1.50;;;10.60;99.60;;;;;;4995835;28;20039;-77
2022/04/10 10:41:16;;;;;;;3.10;1.60;;;10.80;92.50;;;;;;4996960;28;20109;-77
2022/04/10 10:43:42;;;;;;;3.47;1.90;;;10.60;91.30;;;;;;5009555;28;20026;-76
2022/04/10 10:46:24;;;;;;;4.97;1.77;;;10.20;92.90;;;;;;5001630;28;20033;-76
2022/04/10 10:49:10;;;;;;;5.23;2.23;;;10.00;93.70;;;;;;5022326;28;20041;-76
2022/04/10 10:51:42;;;;;;;2.93;1.70;;;9.80;94.60;;;;;;5013912;28;20489;-75
2022/04/10 10:54:11;;;;;;;2.93;1.90;;;9.90;94.10;;;;;;5022206;28;20052;-75
2022/04/10 10:56:39;;;;;;;5.57;2.40;;;10.00;95.60;;;;;;5032243;28;20030;-78
2022/04/10 10:59:32;;;;;;;5.27;2.00;;;10.30;95.70;;;;;;5017787;28;20018;-80
2022/04/10 11:02:11;;;;;;;3.75;2.20;;;10.50;94.10;;;;;;5001262;28;20092;-79
2022/04/10 11:04:42;;;;;;;3.53;2.20;;;10.60;94.30;;;;;;4992383;28;20037;-80
2022/04/10 11:07:19;;;;;;;5.40;2.10;;;10.40;94.20;;;;;;4992204;28;20097;-80
2022/04/10 11:10:05;;;;;;;7.00;2.63;;;10.00;94.40;;;;;;5005196;28;20054;-80
2022/04/10 11:12:38;;;;;;;4.53;2.00;;;9.70;95.60;;;;;;5011847;28;20068;-76
2022/04/10 11:15:25;;;;;;;3.67;1.90;;;9.20;96.20;;;;;;5007922;28;20026;-79
2022/04/10 11:17:53;;;;;;;4.33;2.30;;;8.60;98.20;;;;;;5010243;28;20034;-79
2022/04/10 11:20:21;;;;;;;4.03;2.40;;;8.60;98.90;;;;;;5022381;28;20451;-79
2022/04/10 11:22:55;;;;;;;4.87;2.30;;;8.30;99.90;;;;;;4990244;28;20030;-79
2022/04/10 11:25:27;;;;;;;5.10;3.07;;;7.60;99.90;;;;;;5002513;28;20113;-73
2022/04/10 11:28:11;;;;;;;4.83;3.17;;;7.20;99.90;;;;;;5006491;28;20277;-79
2022/04/10 11:30:44;;;;;;;4.37;2.70;;;6.80;99.90;;;;;;4991086;28;20056;-78
2022/04/10 11:33:11;;;;;;;5.37;3.37;;;6.50;99.90;;;;;;4991269;28;20125;-79
2022/04/10 11:35:42;;;;;;;5.47;3.03;;;6.30;99.90;;;;;;5010508;28;20033;-79
2022/04/10 11:38:12;;;;;;;5.37;3.17;;;6.40;99.90;;;;;;5008856;28;20096;-79
2022/04/10 11:40:47;;;;;;;3.60;2.40;;;6.80;99.90;;;;;;5008923;28;20144;-79
2022/04/10 11:43:15;;;;;;;6.63;2.70;;;7.30;99.90;;;;;;5009874;28;20038;-79
2022/04/10 11:45:43;;;;;;;6.73;2.83;;;7.80;99.90;;;;;;5009264;28;20064;-79
2022/04/10 11:48:09;;;;;;;3.33;2.30;;;8.10;99.90;;;;;;5006605;28;20497;-74
2022/04/10 11:50:36;;;;;;;4.70;2.67;;;8.50;99.90;;;;;;5010655;28;20049;-77
2022/04/10 11:53:06;;;;;;;6.17;2.90;;;8.60;99.90;;;;;;5012399;28;20034;-79
2022/04/10 11:55:38;;;;;;;6.73;3.13;;;8.60;99.90;;;;;;5012919;28;20022;-79
2022/04/10 11:58:21;;;;;;;5.50;2.20;;;8.40;99.90;;;;;;5012416;28;20462;-79
2022/04/10 12:00:49;;;;;;;6.03;2.73;;;8.40;99.90;;;;;;5012214;28;20034;-79
2022/04/10 12:03:15;;;;;;;5.80;2.43;;;9.00;99.90;;;;;;5030976;28;20035;-78
2022/04/10 12:05:41;;;;;;;5.63;2.40;;;9.30;99.90;;;;;;5032812;28;20032;-78
2022/04/10 12:08:07;;;;;;;4.70;2.57;;;9.40;99.90;;;;;;5018888;28;20060;-79
2022/04/10 12:10:33;;;;;;;4.87;2.70;;;9.50;99.90;;;;;;5012656;28;20053;-79
2022/04/10 12:12:59;;;;;;;6.13;2.40;;;9.50;99.90;;;;;;5014461;28;20029;-76
2022/04/10 12:15:26;;;;;;;4.90;2.60;;;9.70;99.90;;;;;;5026985;28;20025;-77
2022/04/10 12:18:13;;;;;;;5.27;2.70;;;9.50;99.90;;;;;;5011852;28;20025;-77
2022/04/10 12:20:43;;;;;;;5.30;2.50;;;9.00;99.90;;;;;;5023853;28;20109;-81
2022/04/10 12:23:25;;;;;;;5.37;2.57;;;8.80;99.90;;;;;;5025493;28;20091;-81
2022/04/10 12:25:56;;;;;;;4.50;2.20;;;8.90;99.90;;;;;;5026630;28;20782;-80
2022/04/10 12:28:23;;;;;;;4.10;2.00;;;9.10;99.90;;;;;;5029186;28;20116;-80
2022/04/10 12:30:49;;;;;;;4.40;2.20;;;9.50;99.90;;;;;;5017180;28;20104;-78
2022/04/10 12:33:16;;;;;;;3.40;2.10;;;9.50;99.90;;;;;;5010433;28;20059;-79
2022/04/10 12:35:43;;;;;;;4.90;2.70;;;9.70;99.90;;;;;;5010514;28;20101;-79
2022/04/10 12:38:11;;;;;;;3.53;2.30;;;10.10;99.90;;;;;;5013668;28;20468;-81
2022/04/10 12:40:37;;;;;;;4.95;2.60;;;10.20;99.90;;;;;;5018559;28;20033;-77
2022/04/10 12:43:09;;;;;;;4.10;2.72;;;10.30;99.90;;;;;;5022405;28;20021;-76
2022/04/10 12:45:38;;;;;;;4.40;2.80;;;10.40;99.90;;;;;;5016065;28;20448;-76
2022/04/10 12:48:26;;;;;;;6.65;2.60;;;10.60;99.90;;;;;;5014311;28;20087;-77
2022/04/10 12:51:09;;;;;;;5.05;2.22;;;11.00;99.90;;;;;;5015695;28;20505;-79
2022/04/10 12:53:36;;;;;;;6.03;2.63;;;11.00;99.90;;;;;;5030146;28;20023;-79
2022/04/10 12:56:02;;;;;;;3.63;2.30;;;11.30;99.90;;;;;;5006360;28;20372;-79
2022/04/10 12:58:31;;;;;;;4.68;2.50;;;11.50;99.90;;;;;;5016504;28;20030;-79
2022/04/10 13:00:57;;;;;;;4.10;2.40;;;11.40;99.90;;;;;;5018350;28;20486;-79
2022/04/10 13:03:24;;;;;;;4.15;2.63;;;11.20;99.90;;;;;;5019489;28;20991;-79
2022/04/10 13:06:06;;;;;;;5.10;2.63;;;11.10;99.90;;;;;;5013219;28;20386;-79